sensor_id;sensor_type;location;lat;lon;timestamp;temperature;humidity
75899;DHT22;64576;50.460;4.866;2023-06-14T00:00:30;17.52;61.11
75899;DHT22;64576;50.460;4.866;2023-06-14T00:02:56;17.53;61.61
75899;DHT22;64576;50.460;4.866;2023-06-14T00:05:22;17.43;61.81
75899;DHT22;64576;50.460;4.866;2023-06-14T00:07:48;17.26;62.32
75899;DHT22;64576;50.460;4.866;2023-06-14T00:10:14;17.03;62.80
75899;DHT22;64576;50.460;4.866;2023-06-14T00:12:40;17.03;62.44
75899;DHT22;64576;50.460;4.866;2023-06-14T00:15:07;16.74;63.19
75899;DHT22;64576;50.460;4.866;2023-06-14T00:17:35;16.56;63.88
75899;DHT22;64576;50.460;4.866;2023-06-14T00:20:03;16.59;64.30
75899;DHT22;64576;50.460;4.866;2023-06-14T00:22:32;16.61;64.36
75899;DHT22;64576;50.460;4.866;2023-06-14T00:24:58;16.38;64.88
75899;DHT22;64576;50.460;4.866;2023-06-14T00:27:23;16.33;65.12
75899;DHT22;64576;50.460;4.866;2023-06-14T00:29:49;16.53;64.41
75899;DHT22;64576;50.460;4.866;2023-06-14T00:32:15;16.61;63.71
75899;DHT22;64576;50.460;4.866;2023-06-14T00:34:40;16.61;63.67
75899;DHT22;64576;50.460;4.866;2023-06-14T00:37:06;16.50;64.66
75899;DHT22;64576;50.460;4.866;2023-06-14T00:39:31;16.18;65.42
75899;DHT22;64576;50.460;4.866;2023-06-14T00:41:57;16.29;65.23
75899;DHT22;64576;50.460;4.866;2023-06-14T00:44:22;16.19;65.30
75899;DHT22;64576;50.460;4.866;2023-06-14T00:46:49;16.15;65.53
75899;DHT22;64576;50.460;4.866;2023-06-14T00:49:15;16.25;65.11
75899;DHT22;64576;50.460;4.866;2023-06-14T00:51:42;16.43;64.67
75899;DHT22;64576;50.460;4.866;2023-06-14T00:54:07;16.25;64.84
75899;DHT22;64576;50.460;4.866;2023-06-14T00:56:35;16.28;65.18
75899;DHT22;64576;50.460;4.866;2023-06-14T00:59:02;16.05;65.84
75899;DHT22;64576;50.460;4.866;2023-06-14T01:01:28;16.12;65.11
75899;DHT22;64576;50.460;4.866;2023-06-14T01:03:54;15.95;66.18
75899;DHT22;64576;50.460;4.866;2023-06-14T01:06:36;15.78;66.59
75899;DHT22;64576;50.460;4.866;2023-06-14T01:09:18;15.73;66.32
75899;DHT22;64576;50.460;4.866;2023-06-14T01:12:00;15.59;67.20
75899;DHT22;64576;50.460;4.866;2023-06-14T01:14:30;15.78;66.91
75899;DHT22;64576;50.460;4.866;2023-06-14T01:16:58;15.53;67.50
75899;DHT22;64576;50.460;4.866;2023-06-14T01:19:26;15.47;67.69
75899;DHT22;64576;50.460;4.866;2023-06-14T01:21:53;15.43;67.62
75899;DHT22;64576;50.460;4.866;2023-06-14T01:24:20;15.36;67.90
75899;DHT22;64576;50.460;4.866;2023-06-14T01:26:50;15.33;67.87
75899;DHT22;64576;50.460;4.866;2023-06-14T01:29:21;15.38;68.11
75899;DHT22;64576;50.460;4.866;2023-06-14T01:31:47;15.49;67.70
75899;DHT22;64576;50.460;4.866;2023-06-14T01:34:14;15.50;67.39
75899;DHT22;64576;50.460;4.866;2023-06-14T01:36:41;15.53;67.48
75899;DHT22;64576;50.460;4.866;2023-06-14T01:39:10;15.46;67.98
75899;DHT22;64576;50.460;4.866;2023-06-14T01:41:36;15.21;68.20
75899;DHT22;64576;50.460;4.866;2023-06-14T01:44:03;14.99;68.73
75899;DHT22;64576;50.460;4.866;2023-06-14T01:46:29;14.68;69.62
75899;DHT22;64576;50.460;4.866;2023-06-14T01:48:55;14.33;70.74
75899;DHT22;64576;50.460;4.866;2023-06-14T01:51:20;14.39;71.19
75899;DHT22;64576;50.460;4.866;2023-06-14T01:53:45;14.16;71.57
75899;DHT22;64576;50.460;4.866;2023-06-14T01:56:12;13.81;72.38
75899;DHT22;64576;50.460;4.866;2023-06-14T01:58:37;13.58;72.83
75899;DHT22;64576;50.460;4.866;2023-06-14T02:01:03;13.40;73.89
75899;DHT22;64576;50.460;4.866;2023-06-14T02:03:28;13.27;74.38
75899;DHT22;64576;50.460;4.866;2023-06-14T02:05:53;13.29;76.51
75899;DHT22;64576;50.460;4.866;2023-06-14T02:08:20;13.15;77.05
75899;DHT22;64576;50.460;4.866;2023-06-14T02:10:45;13.16;78.57
75899;DHT22;64576;50.460;4.866;2023-06-14T02:13:11;13.09;79.83
75899;DHT22;64576;50.460;4.866;2023-06-14T02:15:37;12.91;79.94
75899;DHT22;64576;50.460;4.866;2023-06-14T02:18:03;12.84;80.72
75899;DHT22;64576;50.460;4.866;2023-06-14T02:20:29;12.72;80.96
75899;DHT22;64576;50.460;4.866;2023-06-14T02:22:54;12.75;81.26
75899;DHT22;64576;50.460;4.866;2023-06-14T02:25:20;12.64;82.06
75899;DHT22;64576;50.460;4.866;2023-06-14T02:27:45;12.54;82.06
75899;DHT22;64576;50.460;4.866;2023-06-14T02:30:11;12.45;82.94
75899;DHT22;64576;50.460;4.866;2023-06-14T02:32:37;12.41;83.52
75899;DHT22;64576;50.460;4.866;2023-06-14T02:35:03;12.30;83.89
75899;DHT22;64576;50.460;4.866;2023-06-14T02:37:29;12.99;83.06
75899;DHT22;64576;50.460;4.866;2023-06-14T02:39:55;13.13;82.75
75899;DHT22;64576;50.460;4.866;2023-06-14T02:42:21;13.09;81.51
75899;DHT22;64576;50.460;4.866;2023-06-14T02:44:46;12.98;83.18
75899;DHT22;64576;50.460;4.866;2023-06-14T02:47:19;12.95;81.61
75899;DHT22;64576;50.460;4.866;2023-06-14T02:49:44;13.09;80.18
75899;DHT22;64576;50.460;4.866;2023-06-14T02:52:11;13.10;79.71
75899;DHT22;64576;50.460;4.866;2023-06-14T02:54:37;13.32;79.32
75899;DHT22;64576;50.460;4.866;2023-06-14T02:57:02;13.22;79.38
75899;DHT22;64576;50.460;4.866;2023-06-14T02:59:28;13.42;77.41
75899;DHT22;64576;50.460;4.866;2023-06-14T03:01:53;13.53;77.51
75899;DHT22;64576;50.460;4.866;2023-06-14T03:04:18;13.50;77.20
75899;DHT22;64576;50.460;4.866;2023-06-14T03:06:45;13.39;76.91
75899;DHT22;64576;50.460;4.866;2023-06-14T03:09:15;13.44;76.71
75899;DHT22;64576;50.460;4.866;2023-06-14T03:11:41;13.51;76.31
75899;DHT22;64576;50.460;4.866;2023-06-14T03:14:06;13.57;75.82
75899;DHT22;64576;50.460;4.866;2023-06-14T03:16:33;13.61;75.24
75899;DHT22;64576;50.460;4.866;2023-06-14T03:18:59;13.58;76.40
75899;DHT22;64576;50.460;4.866;2023-06-14T03:21:24;13.58;75.44
75899;DHT22;64576;50.460;4.866;2023-06-14T03:23:51;13.53;75.46
75899;DHT22;64576;50.460;4.866;2023-06-14T03:26:16;13.47;75.16
75899;DHT22;64576;50.460;4.866;2023-06-14T03:28:45;13.29;76.30
75899;DHT22;64576;50.460;4.866;2023-06-14T03:31:11;13.09;77.19
75899;DHT22;64576;50.460;4.866;2023-06-14T03:33:37;13.03;77.28
75899;DHT22;64576;50.460;4.866;2023-06-14T03:36:03;12.98;78.17
75899;DHT22;64576;50.460;4.866;2023-06-14T03:38:28;12.95;79.47
75899;DHT22;64576;50.460;4.866;2023-06-14T03:40:54;12.92;81.04
75899;DHT22;64576;50.460;4.866;2023-06-14T03:43:20;13.16;81.50
75899;DHT22;64576;50.460;4.866;2023-06-14T03:45:45;13.33;81.20
75899;DHT22;64576;50.460;4.866;2023-06-14T03:48:11;13.50;80.63
75899;DHT22;64576;50.460;4.866;2023-06-14T03:50:36;13.71;79.93
75899;DHT22;64576;50.460;4.866;2023-06-14T03:53:06;13.95;79.02
75899;DHT22;64576;50.460;4.866;2023-06-14T03:55:31;14.15;78.38
75899;DHT22;64576;50.460;4.866;2023-06-14T03:57:58;14.30;77.43
75899;DHT22;64576;50.460;4.866;2023-06-14T04:00:24;14.34;77.09
75899;DHT22;64576;50.460;4.866;2023-06-14T04:02:49;14.43;76.96
75899;DHT22;64576;50.460;4.866;2023-06-14T04:05:15;14.59;76.44
75899;DHT22;64576;50.460;4.866;2023-06-14T04:07:42;14.77;75.82
75899;DHT22;64576;50.460;4.866;2023-06-14T04:10:11;14.98;75.29
75899;DHT22;64576;50.460;4.866;2023-06-14T04:12:37;15.19;74.79
75899;DHT22;64576;50.460;4.866;2023-06-14T04:15:02;15.51;74.10
75899;DHT22;64576;50.460;4.866;2023-06-14T04:17:31;15.78;72.43
75899;DHT22;64576;50.460;4.866;2023-06-14T04:19:58;15.95;72.19
75899;DHT22;64576;50.460;4.866;2023-06-14T04:22:25;16.25;71.47
75899;DHT22;64576;50.460;4.866;2023-06-14T04:24:56;16.11;71.89
75899;DHT22;64576;50.460;4.866;2023-06-14T04:27:22;16.33;70.72
75899;DHT22;64576;50.460;4.866;2023-06-14T04:29:50;16.52;70.56
75899;DHT22;64576;50.460;4.866;2023-06-14T04:32:22;16.43;68.94
75899;DHT22;64576;50.460;4.866;2023-06-14T04:34:47;16.73;67.87
75899;DHT22;64576;50.460;4.866;2023-06-14T04:37:13;17.07;66.31
75899;DHT22;64576;50.460;4.866;2023-06-14T04:39:39;17.29;66.12
75899;DHT22;64576;50.460;4.866;2023-06-14T04:42:04;17.52;63.92
75899;DHT22;64576;50.460;4.866;2023-06-14T04:44:32;17.86;64.06
75899;DHT22;64576;50.460;4.866;2023-06-14T04:46:57;17.94;64.39
75899;DHT22;64576;50.460;4.866;2023-06-14T04:49:24;17.96;64.27
75899;DHT22;64576;50.460;4.866;2023-06-14T04:51:50;17.97;63.37
75899;DHT22;64576;50.460;4.866;2023-06-14T04:54:24;18.15;62.97
75899;DHT22;64576;50.460;4.866;2023-06-14T04:56:53;18.10;64.02
75899;DHT22;64576;50.460;4.866;2023-06-14T04:59:20;18.39;62.29
75899;DHT22;64576;50.460;4.866;2023-06-14T05:01:51;18.51;62.93
75899;DHT22;64576;50.460;4.866;2023-06-14T05:04:17;18.48;62.83
75899;DHT22;64576;50.460;4.866;2023-06-14T05:06:43;18.57;63.01
75899;DHT22;64576;50.460;4.866;2023-06-14T05:09:13;18.32;64.23
75899;DHT22;64576;50.460;4.866;2023-06-14T05:11:39;18.45;64.16
75899;DHT22;64576;50.460;4.866;2023-06-14T05:14:05;18.19;64.08
75899;DHT22;64576;50.460;4.866;2023-06-14T05:16:31;18.46;64.04
75899;DHT22;64576;50.460;4.866;2023-06-14T05:18:56;18.53;62.34
75899;DHT22;64576;50.460;4.866;2023-06-14T05:21:23;18.69;63.11
75899;DHT22;64576;50.460;4.866;2023-06-14T05:23:48;19.03;62.02
75899;DHT22;64576;50.460;4.866;2023-06-14T05:26:14;19.18;61.43
75899;DHT22;64576;50.460;4.866;2023-06-14T05:28:39;19.27;60.40
75899;DHT22;64576;50.460;4.866;2023-06-14T05:31:05;18.96;61.02
75899;DHT22;64576;50.460;4.866;2023-06-14T05:33:30;19.25;60.52
75899;DHT22;64576;50.460;4.866;2023-06-14T05:35:56;19.83;59.47
75899;DHT22;64576;50.460;4.866;2023-06-14T05:38:21;20.10;59.03
75899;DHT22;64576;50.460;4.866;2023-06-14T05:40:47;20.31;58.02
75899;DHT22;64576;50.460;4.866;2023-06-14T05:43:12;20.35;57.46
75899;DHT22;64576;50.460;4.866;2023-06-14T05:45:38;20.04;59.65
75899;DHT22;64576;50.460;4.866;2023-06-14T05:48:03;20.17;57.22
75899;DHT22;64576;50.460;4.866;2023-06-14T05:50:29;20.79;56.50
75899;DHT22;64576;50.460;4.866;2023-06-14T05:52:54;20.85;56.29
75899;DHT22;64576;50.460;4.866;2023-06-14T05:55:20;21.27;54.50
75899;DHT22;64576;50.460;4.866;2023-06-14T05:57:45;21.50;53.19
75899;DHT22;64576;50.460;4.866;2023-06-14T06:00:11;21.98;53.14
75899;DHT22;64576;50.460;4.866;2023-06-14T06:02:40;21.99;52.93
75899;DHT22;64576;50.460;4.866;2023-06-14T06:05:06;22.27;52.74
75899;DHT22;64576;50.460;4.866;2023-06-14T06:07:31;22.76;51.81
75899;DHT22;64576;50.460;4.866;2023-06-14T06:09:57;23.46;49.94
75899;DHT22;64576;50.460;4.866;2023-06-14T06:12:22;23.51;48.64
75899;DHT22;64576;50.460;4.866;2023-06-14T06:14:48;23.51;49.01
75899;DHT22;64576;50.460;4.866;2023-06-14T06:17:13;23.50;49.25
75899;DHT22;64576;50.460;4.866;2023-06-14T06:19:38;24.18;48.31
75899;DHT22;64576;50.460;4.866;2023-06-14T06:22:04;24.44;48.08
75899;DHT22;64576;50.460;4.866;2023-06-14T06:24:31;24.70;46.39
75899;DHT22;64576;50.460;4.866;2023-06-14T06:26:57;24.90;46.20
75899;DHT22;64576;50.460;4.866;2023-06-14T06:29:22;25.60;45.12
75899;DHT22;64576;50.460;4.866;2023-06-14T06:31:47;25.40;45.69
75899;DHT22;64576;50.460;4.866;2023-06-14T06:34:13;25.39;45.41
75899;DHT22;64576;50.460;4.866;2023-06-14T06:36:38;25.30;44.10
75899;DHT22;64576;50.460;4.866;2023-06-14T06:39:03;24.85;44.95
75899;DHT22;64576;50.460;4.866;2023-06-14T06:41:38;25.90;44.34
75899;DHT22;64576;50.460;4.866;2023-06-14T06:44:07;25.69;43.11
75899;DHT22;64576;50.460;4.866;2023-06-14T06:46:35;25.87;42.82
75899;DHT22;64576;50.460;4.866;2023-06-14T06:49:00;26.32;41.30
75899;DHT22;64576;50.460;4.866;2023-06-14T06:51:25;26.52;41.84
75899;DHT22;64576;50.460;4.866;2023-06-14T06:53:54;26.55;39.77
75899;DHT22;64576;50.460;4.866;2023-06-14T06:56:21;25.15;43.36
75899;DHT22;64576;50.460;4.866;2023-06-14T06:58:49;25.21;42.91
75899;DHT22;64576;50.460;4.866;2023-06-14T07:01:14;25.77;42.65
75899;DHT22;64576;50.460;4.866;2023-06-14T07:03:40;25.10;43.75
75899;DHT22;64576;50.460;4.866;2023-06-14T07:06:05;26.75;41.19
75899;DHT22;64576;50.460;4.866;2023-06-14T07:08:31;25.57;42.00
75899;DHT22;64576;50.460;4.866;2023-06-14T07:10:56;26.72;41.48
75899;DHT22;64576;50.460;4.866;2023-06-14T07:13:22;26.73;40.76
75899;DHT22;64576;50.460;4.866;2023-06-14T07:15:47;26.45;40.72
75899;DHT22;64576;50.460;4.866;2023-06-14T07:18:13;25.93;41.29
75899;DHT22;64576;50.460;4.866;2023-06-14T07:20:38;26.57;40.87
75899;DHT22;64576;50.460;4.866;2023-06-14T07:23:04;27.25;39.80
75899;DHT22;64576;50.460;4.866;2023-06-14T07:25:30;27.86;39.24
75899;DHT22;64576;50.460;4.866;2023-06-14T07:27:56;27.94;38.32
75899;DHT22;64576;50.460;4.866;2023-06-14T07:30:22;26.80;40.02
75899;DHT22;64576;50.460;4.866;2023-06-14T07:32:51;27.23;39.20
75899;DHT22;64576;50.460;4.866;2023-06-14T07:35:17;27.87;38.93
75899;DHT22;64576;50.460;4.866;2023-06-14T07:37:42;28.34;38.44
75899;DHT22;64576;50.460;4.866;2023-06-14T07:40:08;27.82;39.16
75899;DHT22;64576;50.460;4.866;2023-06-14T07:42:35;28.93;37.85
75899;DHT22;64576;50.460;4.866;2023-06-14T07:45:02;28.49;38.18
75899;DHT22;64576;50.460;4.866;2023-06-14T07:47:27;28.52;38.47
75899;DHT22;64576;50.460;4.866;2023-06-14T07:49:52;28.86;37.44
75899;DHT22;64576;50.460;4.866;2023-06-14T07:52:18;30.13;35.67
75899;DHT22;64576;50.460;4.866;2023-06-14T07:54:44;30.00;36.17
75899;DHT22;64576;50.460;4.866;2023-06-14T07:57:09;28.73;38.23
75899;DHT22;64576;50.460;4.866;2023-06-14T07:59:35;29.23;37.91
75899;DHT22;64576;50.460;4.866;2023-06-14T08:02:00;29.28;37.36
75899;DHT22;64576;50.460;4.866;2023-06-14T08:04:26;29.72;37.66
75899;DHT22;64576;50.460;4.866;2023-06-14T08:06:51;29.86;36.26
75899;DHT22;64576;50.460;4.866;2023-06-14T08:09:17;31.53;34.92
75899;DHT22;64576;50.460;4.866;2023-06-14T08:11:42;30.24;35.16
75899;DHT22;64576;50.460;4.866;2023-06-14T08:14:08;31.08;35.24
75899;DHT22;64576;50.460;4.866;2023-06-14T08:16:33;30.96;34.33
75899;DHT22;64576;50.460;4.866;2023-06-14T08:18:59;31.56;34.27
75899;DHT22;64576;50.460;4.866;2023-06-14T08:21:24;31.22;34.89
75899;DHT22;64576;50.460;4.866;2023-06-14T08:23:52;30.64;34.85
75899;DHT22;64576;50.460;4.866;2023-06-14T08:26:18;31.09;34.42
75899;DHT22;64576;50.460;4.866;2023-06-14T08:28:43;29.69;35.15
75899;DHT22;64576;50.460;4.866;2023-06-14T08:31:09;29.30;35.66
75899;DHT22;64576;50.460;4.866;2023-06-14T08:33:34;31.71;33.00
75899;DHT22;64576;50.460;4.866;2023-06-14T08:36:00;30.37;33.43
75899;DHT22;64576;50.460;4.866;2023-06-14T08:38:25;29.03;34.28
75899;DHT22;64576;50.460;4.866;2023-06-14T08:40:52;30.51;33.82
75899;DHT22;64576;50.460;4.866;2023-06-14T08:43:21;31.81;32.51
75899;DHT22;64576;50.460;4.866;2023-06-14T08:45:48;30.19;33.94
75899;DHT22;64576;50.460;4.866;2023-06-14T08:48:14;31.73;33.18
75899;DHT22;64576;50.460;4.866;2023-06-14T08:50:43;32.18;31.35
75899;DHT22;64576;50.460;4.866;2023-06-14T08:53:13;31.56;32.06
75899;DHT22;64576;50.460;4.866;2023-06-14T08:55:41;32.76;31.19
75899;DHT22;64576;50.460;4.866;2023-06-14T08:58:08;29.61;33.87
75899;DHT22;64576;50.460;4.866;2023-06-14T09:00:34;29.03;34.49
75899;DHT22;64576;50.460;4.866;2023-06-14T09:03:03;30.20;34.25
75899;DHT22;64576;50.460;4.866;2023-06-14T09:05:28;31.03;33.79
75899;DHT22;64576;50.460;4.866;2023-06-14T09:07:55;30.31;35.03
75899;DHT22;64576;50.460;4.866;2023-06-14T09:10:21;30.53;34.73
75899;DHT22;64576;50.460;4.866;2023-06-14T09:12:47;30.61;35.10
75899;DHT22;64576;50.460;4.866;2023-06-14T09:15:13;31.27;34.17
75899;DHT22;64576;50.460;4.866;2023-06-14T09:17:39;31.33;34.36
75899;DHT22;64576;50.460;4.866;2023-06-14T09:20:06;31.89;33.41
75899;DHT22;64576;50.460;4.866;2023-06-14T09:22:37;31.54;33.97
75899;DHT22;64576;50.460;4.866;2023-06-14T09:25:03;31.46;33.21
75899;DHT22;64576;50.460;4.866;2023-06-14T09:27:29;33.26;32.40
75899;DHT22;64576;50.460;4.866;2023-06-14T09:29:55;31.82;31.60
75899;DHT22;64576;50.460;4.866;2023-06-14T09:32:24;30.82;31.94
75899;DHT22;64576;50.460;4.866;2023-06-14T09:34:50;30.06;34.02
75899;DHT22;64576;50.460;4.866;2023-06-14T09:37:31;29.03;36.36
75899;DHT22;64576;50.460;4.866;2023-06-14T09:39:57;30.74;34.19
75899;DHT22;64576;50.460;4.866;2023-06-14T09:42:23;31.84;32.51
75899;DHT22;64576;50.460;4.866;2023-06-14T09:44:51;32.63;31.80
75899;DHT22;64576;50.460;4.866;2023-06-14T09:47:18;31.39;32.22
75899;DHT22;64576;50.460;4.866;2023-06-14T09:49:44;32.64;31.19
75899;DHT22;64576;50.460;4.866;2023-06-14T09:52:20;32.87;29.64
75899;DHT22;64576;50.460;4.866;2023-06-14T09:54:47;31.40;31.70
75899;DHT22;64576;50.460;4.866;2023-06-14T09:57:15;31.92;31.85
75899;DHT22;64576;50.460;4.866;2023-06-14T09:59:45;32.60;32.41
75899;DHT22;64576;50.460;4.866;2023-06-14T10:02:25;33.49;30.63
75899;DHT22;64576;50.460;4.866;2023-06-14T10:05:08;33.49;29.02
75899;DHT22;64576;50.460;4.866;2023-06-14T10:10:15;29.13;32.95
75899;DHT22;64576;50.460;4.866;2023-06-14T10:12:40;30.48;32.62
75899;DHT22;64576;50.460;4.866;2023-06-14T10:15:09;29.86;32.51
75899;DHT22;64576;50.460;4.866;2023-06-14T10:17:37;31.94;30.56
75899;DHT22;64576;50.460;4.866;2023-06-14T10:23:03;31.11;30.98
75899;DHT22;64576;50.460;4.866;2023-06-14T10:25:31;30.96;30.49
75899;DHT22;64576;50.460;4.866;2023-06-14T10:28:18;31.81;29.97
75899;DHT22;64576;50.460;4.866;2023-06-14T10:31:07;31.11;30.02
75899;DHT22;64576;50.460;4.866;2023-06-14T10:33:35;31.67;30.29
75899;DHT22;64576;50.460;4.866;2023-06-14T10:36:24;29.81;31.76
75899;DHT22;64576;50.460;4.866;2023-06-14T10:41:27;33.66;27.81
75899;DHT22;64576;50.460;4.866;2023-06-14T10:44:02;31.60;30.23
75899;DHT22;64576;50.460;4.866;2023-06-14T10:46:35;31.29;30.02
75899;DHT22;64576;50.460;4.866;2023-06-14T10:49:00;31.49;29.11
75899;DHT22;64576;50.460;4.866;2023-06-14T10:51:29;30.63;29.47
75899;DHT22;64576;50.460;4.866;2023-06-14T10:53:56;30.61;29.36
75899;DHT22;64576;50.460;4.866;2023-06-14T10:56:27;32.02;28.99
75899;DHT22;64576;50.460;4.866;2023-06-14T10:58:54;33.41;26.60
75899;DHT22;64576;50.460;4.866;2023-06-14T11:01:36;34.34;25.57
75899;DHT22;64576;50.460;4.866;2023-06-14T11:04:09;32.26;28.78
75899;DHT22;64576;50.460;4.866;2023-06-14T11:06:47;30.78;30.26
75899;DHT22;64576;50.460;4.866;2023-06-14T11:09:58;33.55;27.35
75899;DHT22;64576;50.460;4.866;2023-06-14T11:12:20;33.52;27.27
75899;DHT22;64576;50.460;4.866;2023-06-14T11:14:47;34.65;25.35
75899;DHT22;64576;50.460;4.866;2023-06-14T11:17:13;32.83;27.68
75899;DHT22;64576;50.460;4.866;2023-06-14T11:19:38;33.76;27.15
75899;DHT22;64576;50.460;4.866;2023-06-14T11:22:04;33.24;28.08
75899;DHT22;64576;50.460;4.866;2023-06-14T11:24:29;29.93;30.06
75899;DHT22;64576;50.460;4.866;2023-06-14T11:26:55;31.22;28.84
75899;DHT22;64576;50.460;4.866;2023-06-14T11:29:21;30.67;28.82
75899;DHT22;64576;50.460;4.866;2023-06-14T11:31:47;31.44;28.51
75899;DHT22;64576;50.460;4.866;2023-06-14T11:34:12;31.15;29.21
75899;DHT22;64576;50.460;4.866;2023-06-14T11:36:39;31.77;28.91
75899;DHT22;64576;50.460;4.866;2023-06-14T11:39:06;30.63;29.01
75899;DHT22;64576;50.460;4.866;2023-06-14T11:41:38;33.14;27.79
75899;DHT22;64576;50.460;4.866;2023-06-14T11:44:04;32.95;27.25
75899;DHT22;64576;50.460;4.866;2023-06-14T11:46:30;31.56;29.01
75899;DHT22;64576;50.460;4.866;2023-06-14T11:48:56;31.58;28.63
75899;DHT22;64576;50.460;4.866;2023-06-14T11:51:21;31.50;28.63
75899;DHT22;64576;50.460;4.866;2023-06-14T11:53:47;32.29;28.44
75899;DHT22;64576;50.460;4.866;2023-06-14T11:56:13;30.81;30.41
75899;DHT22;64576;50.460;4.866;2023-06-14T11:58:38;32.49;28.71
75899;DHT22;64576;50.460;4.866;2023-06-14T12:01:04;30.55;29.55
75899;DHT22;64576;50.460;4.866;2023-06-14T12:03:30;30.03;30.67
75899;DHT22;64576;50.460;4.866;2023-06-14T12:06:07;31.85;29.73
75899;DHT22;64576;50.460;4.866;2023-06-14T12:08:37;30.61;30.26
75899;DHT22;64576;50.460;4.866;2023-06-14T12:11:10;30.63;31.27
75899;DHT22;64576;50.460;4.866;2023-06-14T12:13:38;29.83;32.41
75899;DHT22;64576;50.460;4.866;2023-06-14T12:16:04;31.36;29.63
75899;DHT22;64576;50.460;4.866;2023-06-14T12:18:37;32.25;28.28
75899;DHT22;64576;50.460;4.866;2023-06-14T12:21:07;31.16;30.28
75899;DHT22;64576;50.460;4.866;2023-06-14T12:24:03;31.41;29.50
75899;DHT22;64576;50.460;4.866;2023-06-14T12:26:28;29.92;31.49
75899;DHT22;64576;50.460;4.866;2023-06-14T12:28:53;30.27;31.35
75899;DHT22;64576;50.460;4.866;2023-06-14T12:31:19;31.74;29.93
75899;DHT22;64576;50.460;4.866;2023-06-14T12:33:44;31.00;30.64
75899;DHT22;64576;50.460;4.866;2023-06-14T12:36:14;32.50;29.07
75899;DHT22;64576;50.460;4.866;2023-06-14T12:38:40;32.16;28.52
75899;DHT22;64576;50.460;4.866;2023-06-14T12:41:06;30.76;29.36
75899;DHT22;64576;50.460;4.866;2023-06-14T12:43:33;30.06;30.91
75899;DHT22;64576;50.460;4.866;2023-06-14T12:45:59;31.39;29.69
75899;DHT22;64576;50.460;4.866;2023-06-14T12:48:24;31.08;30.03
75899;DHT22;64576;50.460;4.866;2023-06-14T12:50:51;31.64;28.98
75899;DHT22;64576;50.460;4.866;2023-06-14T12:53:16;31.20;29.22
75899;DHT22;64576;50.460;4.866;2023-06-14T12:55:42;30.17;31.03
75899;DHT22;64576;50.460;4.866;2023-06-14T12:58:07;32.09;29.05
75899;DHT22;64576;50.460;4.866;2023-06-14T13:00:33;31.22;29.77
75899;DHT22;64576;50.460;4.866;2023-06-14T13:02:58;32.23;28.10
75899;DHT22;64576;50.460;4.866;2023-06-14T13:05:24;34.05;27.04
75899;DHT22;64576;50.460;4.866;2023-06-14T13:07:50;33.59;27.25
75899;DHT22;64576;50.460;4.866;2023-06-14T13:10:16;32.02;28.94
75899;DHT22;64576;50.460;4.866;2023-06-14T13:12:42;28.75;32.57
75899;DHT22;64576;50.460;4.866;2023-06-14T13:15:07;29.98;31.40
75899;DHT22;64576;50.460;4.866;2023-06-14T13:17:34;31.75;29.07
75899;DHT22;64576;50.460;4.866;2023-06-14T13:20:05;31.29;28.77
75899;DHT22;64576;50.460;4.866;2023-06-14T13:22:30;30.02;30.22
75899;DHT22;64576;50.460;4.866;2023-06-14T13:24:56;29.58;30.41
75899;DHT22;64576;50.460;4.866;2023-06-14T13:27:21;29.10;31.06
75899;DHT22;64576;50.460;4.866;2023-06-14T13:29:46;30.34;29.18
75899;DHT22;64576;50.460;4.866;2023-06-14T13:32:12;30.54;29.10
75899;DHT22;64576;50.460;4.866;2023-06-14T13:34:37;31.40;28.63
75899;DHT22;64576;50.460;4.866;2023-06-14T13:37:03;30.85;29.19
75899;DHT22;64576;50.460;4.866;2023-06-14T13:39:28;31.13;29.75
75899;DHT22;64576;50.460;4.866;2023-06-14T13:41:53;30.95;29.44
75899;DHT22;64576;50.460;4.866;2023-06-14T13:44:19;30.48;30.18
75899;DHT22;64576;50.460;4.866;2023-06-14T13:46:46;29.85;30.24
75899;DHT22;64576;50.460;4.866;2023-06-14T13:49:12;29.39;30.63
75899;DHT22;64576;50.460;4.866;2023-06-14T13:51:38;30.05;29.74
75899;DHT22;64576;50.460;4.866;2023-06-14T13:54:03;31.27;29.25
75899;DHT22;64576;50.460;4.866;2023-06-14T13:56:29;31.92;28.44
75899;DHT22;64576;50.460;4.866;2023-06-14T13:58:55;31.37;29.09
75899;DHT22;64576;50.460;4.866;2023-06-14T14:01:21;31.03;29.82
75899;DHT22;64576;50.460;4.866;2023-06-14T14:03:48;30.19;30.83
75899;DHT22;64576;50.460;4.866;2023-06-14T14:06:15;29.16;32.06
75899;DHT22;64576;50.460;4.866;2023-06-14T14:08:41;31.54;29.88
75899;DHT22;64576;50.460;4.866;2023-06-14T14:11:07;30.13;31.10
75899;DHT22;64576;50.460;4.866;2023-06-14T14:13:33;31.37;29.66
75899;DHT22;64576;50.460;4.866;2023-06-14T14:15:59;31.46;29.87
75899;DHT22;64576;50.460;4.866;2023-06-14T14:18:24;29.33;31.71
75899;DHT22;64576;50.460;4.866;2023-06-14T14:20:50;30.36;30.65
75899;DHT22;64576;50.460;4.866;2023-06-14T14:23:15;32.08;28.42
75899;DHT22;64576;50.460;4.866;2023-06-14T14:25:41;30.93;29.57
75899;DHT22;64576;50.460;4.866;2023-06-14T14:28:07;31.43;28.58
75899;DHT22;64576;50.460;4.866;2023-06-14T14:30:32;31.47;29.07
75899;DHT22;64576;50.460;4.866;2023-06-14T14:32:58;30.37;29.92
75899;DHT22;64576;50.460;4.866;2023-06-14T14:35:24;29.28;31.16
75899;DHT22;64576;50.460;4.866;2023-06-14T14:37:51;29.26;30.65
75899;DHT22;64576;50.460;4.866;2023-06-14T14:40:16;31.13;28.69
75899;DHT22;64576;50.460;4.866;2023-06-14T14:42:42;31.99;27.63
75899;DHT22;64576;50.460;4.866;2023-06-14T14:45:07;31.61;27.66
75899;DHT22;64576;50.460;4.866;2023-06-14T14:47:33;29.03;29.96
75899;DHT22;64576;50.460;4.866;2023-06-14T14:49:58;28.76;30.70
75899;DHT22;64576;50.460;4.866;2023-06-14T14:52:24;29.98;29.63
75899;DHT22;64576;50.460;4.866;2023-06-14T14:54:50;29.16;29.90
75899;DHT22;64576;50.460;4.866;2023-06-14T14:57:15;28.18;31.17
75899;DHT22;64576;50.460;4.866;2023-06-14T14:59:41;29.78;29.13
75899;DHT22;64576;50.460;4.866;2023-06-14T15:02:06;29.47;29.14
75899;DHT22;64576;50.460;4.866;2023-06-14T15:04:32;28.96;29.70
75899;DHT22;64576;50.460;4.866;2023-06-14T15:06:57;28.62;30.08
75899;DHT22;64576;50.460;4.866;2023-06-14T15:09:23;30.06;28.62
75899;DHT22;64576;50.460;4.866;2023-06-14T15:11:48;30.29;28.36
75899;DHT22;64576;50.460;4.866;2023-06-14T15:14:13;29.51;28.95
75899;DHT22;64576;50.460;4.866;2023-06-14T15:16:40;29.09;29.98
75899;DHT22;64576;50.460;4.866;2023-06-14T15:19:05;29.75;29.00
75899;DHT22;64576;50.460;4.866;2023-06-14T15:21:31;29.13;29.62
75899;DHT22;64576;50.460;4.866;2023-06-14T15:23:56;29.92;28.70
75899;DHT22;64576;50.460;4.866;2023-06-14T15:26:21;30.69;28.38
75899;DHT22;64576;50.460;4.866;2023-06-14T15:28:49;30.65;29.32
75899;DHT22;64576;50.460;4.866;2023-06-14T15:31:15;30.26;29.49
75899;DHT22;64576;50.460;4.866;2023-06-14T15:33:40;28.95;30.97
75899;DHT22;64576;50.460;4.866;2023-06-14T15:36:06;28.52;30.99